createdAt,value
2023-07-07T00:02:31.536Z,98168.47
2023-07-07T00:05:16.821Z,98131.75
2023-07-07T00:08:02.454Z,98107.88
2023-07-07T00:10:48.551Z,98209.00
2023-07-07T00:13:33.965Z,98134.88
2023-07-07T00:16:21.023Z,98259.22
2023-07-07T00:19:10.603Z,98110.00
2023-07-07T00:21:59.445Z,98080.97
2023-07-07T00:24:45.009Z,98255.78
2023-07-07T00:27:31.222Z,98250.16
2023-07-07T00:30:16.801Z,98111.59
2023-07-07T00:33:02.238Z,98092.31
2023-07-07T00:35:49.070Z,98224.19
2023-07-07T00:38:34.504Z,98104.13
2023-07-07T00:41:21.077Z,98258.25
2023-07-07T00:44:12.581Z,98263.72
2023-07-07T00:46:58.222Z,98219.22
2023-07-07T00:49:44.048Z,98178.63
2023-07-07T00:52:31.022Z,98239.50
2023-07-07T00:55:23.277Z,98120.56
2023-07-07T00:58:13.301Z,98127.06
2023-07-07T01:01:04.185Z,98160.72
2023-07-07T01:04:06.234Z,98134.13
2023-07-07T01:06:58.441Z,98121.13
2023-07-07T01:09:43.727Z,98287.22
2023-07-07T01:12:28.870Z,98227.69
2023-07-07T01:15:14.846Z,98291.16
2023-07-07T01:18:32.446Z,98231.78
2023-07-07T01:21:30.578Z,98282.50
2023-07-07T01:24:37.248Z,98285.97
2023-07-07T01:27:37.083Z,98146.44
2023-07-07T01:30:50.113Z,98294.31
2023-07-07T01:33:36.170Z,98270.72
2023-07-07T01:36:21.556Z,98280.72
2023-07-07T01:39:07.261Z,98178.16
2023-07-07T01:42:02.178Z,98152.59
2023-07-07T01:44:57.245Z,98309.00
2023-07-07T01:47:52.275Z,98164.41
2023-07-07T01:50:39.531Z,98305.91
2023-07-07T01:53:28.805Z,98308.66
2023-07-07T01:56:20.985Z,98302.81
2023-07-07T01:59:07.083Z,98272.22
2023-07-07T02:01:53.035Z,98312.44
2023-07-07T02:04:38.377Z,98165.63
2023-07-07T02:07:23.464Z,98169.56
2023-07-07T02:10:09.125Z,98177.19
2023-07-07T02:12:54.736Z,98287.97
2023-07-07T02:15:40.144Z,98266.94
2023-07-07T02:18:28.000Z,98210.88
2023-07-07T02:21:13.358Z,98247.28
2023-07-07T02:23:58.953Z,98197.84
2023-07-07T02:26:44.450Z,98323.66
2023-07-07T02:29:30.035Z,98169.25
2023-07-07T02:32:15.422Z,98189.81
2023-07-07T02:35:02.966Z,98328.94
2023-07-07T02:37:48.555Z,98270.47
2023-07-07T02:40:34.188Z,98193.28
2023-07-07T02:43:22.111Z,98183.03
2023-07-07T02:46:07.412Z,98340.84
2023-07-07T02:48:53.013Z,98286.44
2023-07-07T02:51:38.312Z,98273.66
2023-07-07T02:54:23.643Z,98184.94
2023-07-07T02:57:09.002Z,98236.47
2023-07-07T02:59:54.498Z,98207.03
2023-07-07T03:02:39.902Z,98357.13
2023-07-07T03:05:25.658Z,98352.06
2023-07-07T03:08:12.036Z,98320.59
2023-07-07T03:10:57.738Z,98354.56
2023-07-07T03:13:46.966Z,98334.34
2023-07-07T03:16:34.014Z,98373.00
2023-07-07T03:19:22.928Z,98255.84
2023-07-07T03:22:19.060Z,98386.91
2023-07-07T03:25:18.190Z,98368.25
2023-07-07T03:28:06.991Z,98327.94
2023-07-07T03:30:58.150Z,98383.78
2023-07-07T03:33:45.792Z,98178.94
2023-07-07T03:36:34.056Z,98294.44
2023-07-07T03:39:20.017Z,98208.28
2023-07-07T03:42:09.808Z,98194.81
2023-07-07T03:44:56.178Z,98237.84
2023-07-07T03:47:41.761Z,98249.66
2023-07-07T03:50:28.439Z,98203.72
2023-07-07T03:53:14.245Z,98354.97
2023-07-07T03:56:03.386Z,98331.53
2023-07-07T03:58:49.674Z,98318.31
2023-07-07T04:01:35.160Z,98357.13
2023-07-07T04:04:20.480Z,98208.78
2023-07-07T04:07:05.951Z,98243.28
2023-07-07T04:09:53.183Z,98372.34
2023-07-07T04:12:39.238Z,98383.56
2023-07-07T04:15:24.696Z,98389.28
2023-07-07T04:18:09.962Z,98207.88
2023-07-07T04:20:55.798Z,98392.19
2023-07-07T04:23:43.931Z,98393.25
2023-07-07T04:26:31.679Z,98368.84
2023-07-07T04:29:17.205Z,98257.81
2023-07-07T04:32:03.312Z,98427.03
2023-07-07T04:34:48.465Z,98267.91
2023-07-07T04:37:34.190Z,98302.34
2023-07-07T04:40:19.498Z,98300.78
2023-07-07T04:43:04.751Z,98312.41
2023-07-07T04:45:50.082Z,98442.09
2023-07-07T04:48:35.460Z,98392.72
2023-07-07T04:51:21.719Z,98367.09
2023-07-07T04:54:11.382Z,98310.88
2023-07-07T04:56:57.280Z,98364.84
2023-07-07T04:59:42.688Z,98425.16
2023-07-07T05:02:28.078Z,98368.81
2023-07-07T05:05:14.462Z,98433.69
2023-07-07T05:07:59.838Z,98442.22
2023-07-07T05:10:48.935Z,98289.69
2023-07-07T05:13:34.568Z,98465.41
2023-07-07T05:16:23.402Z,98302.25
2023-07-07T05:19:08.943Z,98480.03
2023-07-07T05:21:54.377Z,98426.34
2023-07-07T05:24:39.878Z,98471.41
2023-07-07T05:27:25.547Z,98386.56
2023-07-07T05:30:11.102Z,98451.03
2023-07-07T05:32:56.700Z,98452.28
2023-07-07T05:35:49.073Z,98349.19
2023-07-07T05:38:35.078Z,98460.94
2023-07-07T05:41:20.569Z,98434.19
2023-07-07T05:44:05.703Z,98456.78
2023-07-07T05:46:50.970Z,98299.53
2023-07-07T05:49:36.299Z,98441.16
2023-07-07T05:52:22.293Z,98419.88
2023-07-07T05:55:10.101Z,98454.91
2023-07-07T05:57:56.551Z,98520.81
2023-07-07T06:00:42.593Z,98449.41
2023-07-07T06:03:28.594Z,98515.28
2023-07-07T06:06:14.376Z,98364.97
2023-07-07T06:08:59.933Z,98464.03
2023-07-07T06:11:47.897Z,98462.78
2023-07-07T06:14:33.104Z,98487.16
2023-07-07T06:17:18.453Z,98497.78
2023-07-07T06:20:04.837Z,98362.28
2023-07-07T06:22:50.408Z,98461.84
2023-07-07T06:25:36.108Z,98508.91
2023-07-07T06:28:21.867Z,98471.09
2023-07-07T06:31:07.135Z,98340.56
2023-07-07T06:33:52.682Z,98382.59
2023-07-07T06:36:37.901Z,98340.16
2023-07-07T06:39:26.275Z,98510.19
2023-07-07T06:42:13.782Z,98473.63
2023-07-07T06:45:08.508Z,98506.41
2023-07-07T06:47:55.047Z,98260.50
2023-07-07T06:50:42.511Z,98361.00
2023-07-07T06:53:28.203Z,98512.00
2023-07-07T06:56:13.553Z,98521.19
2023-07-07T06:58:58.866Z,98375.53
2023-07-07T07:01:44.963Z,98524.56
2023-07-07T07:04:30.766Z,98531.22
2023-07-07T07:07:16.219Z,98446.97
2023-07-07T07:10:03.694Z,98533.91
2023-07-07T07:12:49.894Z,98479.81
2023-07-07T07:15:35.662Z,98519.41
2023-07-07T07:18:21.064Z,98453.97
2023-07-07T07:21:06.529Z,98371.72
2023-07-07T07:23:52.575Z,98400.28
2023-07-07T07:26:38.102Z,98518.22
2023-07-07T07:29:23.484Z,98525.59
2023-07-07T07:32:09.077Z,98377.69
2023-07-07T07:34:54.767Z,98523.75
2023-07-07T07:37:40.493Z,98406.19
2023-07-07T07:40:26.309Z,98421.13
2023-07-07T07:43:11.999Z,98412.41
2023-07-07T07:45:57.417Z,98415.66
2023-07-07T07:48:43.465Z,98583.41
2023-07-07T07:51:36.950Z,98433.41
2023-07-07T07:54:24.688Z,98530.69
2023-07-07T07:57:11.463Z,98533.38
2023-07-07T07:59:56.852Z,98561.47
2023-07-07T08:02:42.386Z,98434.34
2023-07-07T08:05:27.811Z,98504.28
2023-07-07T08:08:14.207Z,98416.88
2023-07-07T08:11:09.985Z,98422.38
2023-07-07T08:13:56.486Z,98446.63
2023-07-07T08:16:42.037Z,98448.81
2023-07-07T08:19:27.548Z,98574.47
2023-07-07T08:22:21.568Z,98436.44
2023-07-07T08:25:08.737Z,98433.00
2023-07-07T08:28:07.658Z,98423.03
2023-07-07T08:30:53.917Z,98475.69
2023-07-07T08:33:41.309Z,98575.91
2023-07-07T08:36:35.998Z,98429.78
2023-07-07T08:39:23.687Z,98547.44
2023-07-07T08:42:22.915Z,98427.78
2023-07-07T08:45:21.587Z,98583.28
2023-07-07T08:48:21.866Z,98431.44
2023-07-07T08:51:16.112Z,98525.47
2023-07-07T08:54:28.134Z,98590.22
2023-07-07T08:57:15.868Z,98586.06
2023-07-07T09:00:18.313Z,98587.59
2023-07-07T09:03:19.148Z,98587.72
2023-07-07T09:06:26.714Z,98579.91
2023-07-07T09:09:53.876Z,98605.19
2023-07-07T09:12:46.807Z,98584.81
2023-07-07T09:15:38.088Z,98440.25
2023-07-07T09:18:28.853Z,98568.47
2023-07-07T09:21:43.596Z,98584.88
2023-07-07T09:24:47.073Z,98580.94
2023-07-07T09:28:01.054Z,98593.38
2023-07-07T09:30:51.904Z,98496.31
2023-07-07T09:33:37.180Z,98504.72
2023-07-07T09:36:29.220Z,98594.81
2023-07-07T09:39:29.115Z,98602.06
2023-07-07T09:42:39.357Z,98599.53
2023-07-07T09:45:47.537Z,98604.09
2023-07-07T09:49:19.971Z,98609.91
2023-07-07T09:52:24.377Z,98605.91
2023-07-07T09:55:20.962Z,98467.94
2023-07-07T09:58:24.103Z,98605.00
2023-07-07T10:01:11.478Z,98189.34
2023-07-07T10:03:57.728Z,98641.69
2023-07-07T10:07:05.517Z,98581.13
2023-07-07T10:09:52.197Z,98615.22
2023-07-07T10:12:38.517Z,98467.16
2023-07-07T10:15:23.897Z,98639.28
2023-07-07T10:18:17.862Z,98625.28
2023-07-07T10:21:07.624Z,98583.91
2023-07-07T10:23:53.668Z,98477.31
2023-07-07T10:26:41.087Z,98474.22
2023-07-07T10:29:32.773Z,98636.81
2023-07-07T10:32:25.482Z,98640.47
2023-07-07T10:35:19.241Z,98582.09
2023-07-07T10:38:06.023Z,98643.53
2023-07-07T10:40:52.027Z,98622.00
2023-07-07T10:43:37.895Z,98614.47
2023-07-07T10:46:23.798Z,98639.19
2023-07-07T10:49:17.563Z,98652.25
2023-07-07T10:55:32.920Z,98658.03
2023-07-07T10:58:21.626Z,98664.81
2023-07-07T11:01:30.682Z,98670.63
2023-07-07T11:04:50.331Z,98593.75
2023-07-07T11:07:49.844Z,98676.63
2023-07-07T11:10:44.729Z,98542.66
2023-07-07T11:13:38.966Z,98692.44
2023-07-07T11:16:24.589Z,98672.78
2023-07-07T11:19:29.684Z,98696.06
2023-07-07T11:22:15.153Z,98699.72
2023-07-07T11:25:32.244Z,98676.63
2023-07-07T11:28:43.056Z,98597.22
2023-07-07T11:31:50.994Z,98673.34
2023-07-07T11:35:18.839Z,98672.09
2023-07-07T11:38:13.374Z,98676.44
2023-07-07T11:41:25.089Z,98666.72
2023-07-07T11:44:29.525Z,98658.44
2023-07-07T11:47:21.356Z,98664.22
2023-07-07T11:50:34.053Z,98631.00
2023-07-07T11:53:41.388Z,98654.63
2023-07-07T11:56:50.976Z,98663.22
2023-07-07T12:00:13.219Z,98668.97
2023-07-07T12:03:24.285Z,98650.03
2023-07-07T12:06:27.381Z,98662.19
2023-07-07T12:09:26.032Z,98675.84
2023-07-07T12:12:24.311Z,98504.78
2023-07-07T12:15:13.633Z,98547.25
2023-07-07T12:18:18.158Z,98489.50
2023-07-07T12:21:21.927Z,98627.81
2023-07-07T12:24:23.072Z,98649.16
2023-07-07T12:27:43.749Z,98597.75
2023-07-07T12:30:33.563Z,98654.50
2023-07-07T12:33:19.436Z,98458.63
2023-07-07T12:36:09.154Z,98598.34
2023-07-07T12:39:00.902Z,98618.63
2023-07-07T12:41:46.261Z,98477.88
2023-07-07T12:44:32.834Z,98615.19
2023-07-07T12:47:32.329Z,98614.47
2023-07-07T12:50:39.285Z,98618.25
2023-07-07T12:53:46.733Z,98516.09
2023-07-07T12:56:33.661Z,98556.75
2023-07-07T12:59:40.242Z,98598.84
2023-07-07T13:02:27.336Z,98614.59
2023-07-07T13:05:23.588Z,98619.13
2023-07-07T13:08:09.249Z,98451.63
2023-07-07T13:11:05.004Z,98618.59
2023-07-07T13:13:52.080Z,98614.47
2023-07-07T13:16:37.866Z,98509.25
2023-07-07T13:19:24.296Z,98637.28
2023-07-07T13:22:17.758Z,98613.97
2023-07-07T13:25:08.128Z,98482.13
2023-07-07T13:27:54.752Z,98593.84
2023-07-07T13:30:46.311Z,98473.75
2023-07-07T13:33:31.775Z,98622.94
2023-07-07T13:36:17.616Z,98613.00
2023-07-07T13:39:03.199Z,98620.00
2023-07-07T13:41:49.473Z,98585.22
2023-07-07T13:44:35.342Z,98515.22
2023-07-07T13:47:23.564Z,98503.69
2023-07-07T13:50:15.461Z,98606.72
2023-07-07T13:53:07.533Z,98586.00
2023-07-07T13:55:54.614Z,98441.50
2023-07-07T13:58:42.885Z,98500.09
2023-07-07T14:01:38.058Z,98595.28
2023-07-07T14:04:29.590Z,98630.59
2023-07-07T14:07:20.634Z,98595.44
2023-07-07T14:10:28.582Z,98628.66
2023-07-07T14:13:18.236Z,98622.28
2023-07-07T14:16:18.605Z,98485.34
2023-07-07T14:19:13.265Z,98631.13
2023-07-07T14:21:59.252Z,98490.34
2023-07-07T14:24:45.202Z,98522.00
2023-07-07T14:27:32.108Z,98615.53
2023-07-07T14:30:23.331Z,98544.66
2023-07-07T14:33:09.932Z,98624.13
2023-07-07T14:35:58.881Z,98495.16
2023-07-07T14:38:59.610Z,98637.13
2023-07-07T14:41:45.499Z,98521.09
2023-07-07T14:44:40.660Z,98638.63
2023-07-07T14:47:34.755Z,98508.94
2023-07-07T14:50:21.182Z,98501.38
2023-07-07T14:53:17.382Z,98565.28
2023-07-07T14:56:23.220Z,98565.47
2023-07-07T14:59:41.134Z,98500.09
2023-07-07T15:02:38.437Z,98634.53
2023-07-07T15:05:33.203Z,98638.31
2023-07-07T15:08:18.994Z,98602.19
2023-07-07T15:11:07.118Z,98649.63
2023-07-07T15:13:53.757Z,98574.88
2023-07-07T15:16:41.040Z,98627.13
2023-07-07T15:19:26.666Z,98596.91
2023-07-07T15:22:12.359Z,98625.84
2023-07-07T15:24:57.969Z,98609.63
2023-07-07T15:28:02.554Z,98623.91
2023-07-07T15:30:49.709Z,98640.91
2023-07-07T15:33:36.489Z,98498.69
2023-07-07T15:36:26.164Z,98486.25
2023-07-07T15:39:16.647Z,98611.72
2023-07-07T15:42:14.240Z,98592.34
2023-07-07T15:45:01.890Z,98490.91
2023-07-07T15:47:48.722Z,98483.91
2023-07-07T15:50:40.555Z,98573.66
2023-07-07T15:53:28.706Z,98664.84
2023-07-07T15:56:17.627Z,98498.56
2023-07-07T15:59:13.893Z,98613.97
2023-07-07T16:01:59.723Z,98494.84
2023-07-07T16:04:45.749Z,98520.78
2023-07-07T16:07:31.498Z,98519.44
2023-07-07T16:10:17.145Z,98506.56
2023-07-07T16:13:02.828Z,98594.75
2023-07-07T16:15:48.646Z,98492.41
2023-07-07T16:18:34.361Z,98509.09
2023-07-07T16:21:25.454Z,98474.44
2023-07-07T16:24:11.639Z,98608.69
2023-07-07T16:26:57.315Z,98624.66
2023-07-07T16:29:43.280Z,98507.66
2023-07-07T16:32:28.442Z,98478.63
2023-07-07T16:35:15.063Z,98470.25
2023-07-07T16:38:00.508Z,98615.78
2023-07-07T16:40:46.607Z,98558.09
2023-07-07T16:43:32.391Z,98615.25
2023-07-07T16:46:20.490Z,98676.00
2023-07-07T16:49:11.082Z,98581.34
2023-07-07T16:51:56.764Z,98630.72
2023-07-07T16:54:42.110Z,98520.44
2023-07-07T16:57:28.699Z,98526.16
2023-07-07T17:00:26.202Z,98623.47
2023-07-07T17:03:14.551Z,98529.09
2023-07-07T17:06:04.509Z,98492.59
2023-07-07T17:08:51.193Z,98608.56
2023-07-07T17:11:36.832Z,98621.66
2023-07-07T17:14:22.274Z,98640.38
2023-07-07T17:17:12.212Z,98657.47
2023-07-07T17:19:57.505Z,98647.28
2023-07-07T17:22:42.744Z,98662.38
2023-07-07T17:25:28.111Z,98518.47
2023-07-07T17:28:13.805Z,98516.03
2023-07-07T17:31:11.072Z,98661.47
2023-07-07T17:33:57.324Z,98660.75
2023-07-07T17:36:43.567Z,98623.00
2023-07-07T17:39:29.267Z,98586.88
2023-07-07T17:42:15.000Z,98580.69
2023-07-07T17:45:00.595Z,98590.94
2023-07-07T17:47:46.248Z,98634.63
2023-07-07T17:50:47.804Z,98701.38
2023-07-07T17:53:33.557Z,98706.91
2023-07-07T17:56:23.425Z,98708.06
2023-07-07T17:59:23.132Z,98626.38
2023-07-07T18:02:11.308Z,98582.06
2023-07-07T18:04:56.709Z,98717.94
2023-07-07T18:07:42.416Z,98722.22
2023-07-07T18:10:30.843Z,98621.19
2023-07-07T18:13:16.116Z,98699.66
2023-07-07T18:16:02.842Z,98573.41
2023-07-07T18:18:53.895Z,98742.78
2023-07-07T18:21:59.411Z,98722.22
2023-07-07T18:24:49.248Z,98736.25
2023-07-07T18:27:34.691Z,98589.41
2023-07-07T18:30:37.843Z,98764.97
2023-07-07T18:33:23.404Z,98737.97
2023-07-07T18:36:47.172Z,98604.44
2023-07-07T18:39:24.791Z,98597.63
2023-07-07T18:42:10.937Z,98727.53
2023-07-07T18:44:56.254Z,98689.41
2023-07-07T18:47:42.647Z,98738.78
2023-07-07T18:50:30.333Z,98737.78
2023-07-07T18:53:18.155Z,98721.50
2023-07-07T18:56:04.104Z,98584.16
2023-07-07T18:58:51.614Z,98634.69
2023-07-07T19:01:37.788Z,98695.22
2023-07-07T19:04:23.609Z,98602.72
2023-07-07T19:07:09.153Z,98605.94
2023-07-07T19:09:54.855Z,98771.09
2023-07-07T19:12:40.257Z,98669.72
2023-07-07T19:15:25.637Z,98726.81
2023-07-07T19:18:41.173Z,98558.25
2023-07-07T19:21:39.705Z,98722.28
2023-07-07T19:24:25.804Z,98687.22
2023-07-07T19:27:14.253Z,98735.22
2023-07-07T19:30:02.004Z,98567.22
2023-07-07T19:32:47.342Z,98720.25
2023-07-07T19:35:33.768Z,98716.06
2023-07-07T19:38:22.869Z,98737.72
2023-07-07T19:41:16.889Z,98646.78
2023-07-07T19:44:02.498Z,98561.34
2023-07-07T19:46:53.351Z,98723.16
2023-07-07T19:49:39.075Z,98713.47
2023-07-07T19:52:24.610Z,98711.28
2023-07-07T19:55:10.223Z,98565.66
2023-07-07T19:57:56.615Z,98683.06
2023-07-07T20:00:42.383Z,98680.59
2023-07-07T20:03:27.991Z,98677.66
2023-07-07T20:06:17.084Z,98702.97
2023-07-07T20:09:02.521Z,98691.81
2023-07-07T20:11:49.358Z,98635.56
2023-07-07T20:14:35.327Z,98696.34
2023-07-07T20:17:20.981Z,98684.44
2023-07-07T20:20:14.312Z,98723.22
2023-07-07T20:22:59.865Z,98727.91
2023-07-07T20:25:45.639Z,98716.97
2023-07-07T20:28:31.044Z,98636.56
2023-07-07T20:31:18.451Z,98511.63
2023-07-07T20:34:04.714Z,98690.16
2023-07-07T20:36:50.483Z,98710.47
2023-07-07T20:39:35.647Z,98700.03
2023-07-07T20:42:22.056Z,98632.72
2023-07-07T20:45:08.359Z,98717.00
2023-07-07T20:47:53.954Z,98572.59
2023-07-07T20:50:46.004Z,98664.00
2023-07-07T20:53:32.193Z,98613.06
2023-07-07T20:56:19.630Z,98678.59
2023-07-07T20:59:25.961Z,98735.59
2023-07-07T21:02:14.259Z,98734.72
2023-07-07T21:05:00.183Z,98689.47
2023-07-07T21:07:45.634Z,98570.25
2023-07-07T21:10:33.967Z,98582.94
2023-07-07T21:13:23.235Z,98600.13
2023-07-07T21:16:17.201Z,98737.75
2023-07-07T21:19:02.529Z,98744.09
2023-07-07T21:21:47.947Z,98572.25
2023-07-07T21:24:33.195Z,98531.88
2023-07-07T21:27:19.505Z,98671.31
2023-07-07T21:30:18.480Z,98598.50
2023-07-07T21:33:04.331Z,98722.22
2023-07-07T21:35:50.082Z,98724.88
2023-07-07T21:38:36.089Z,98737.56
2023-07-07T21:41:28.689Z,98530.22
2023-07-07T21:44:17.609Z,98593.13
2023-07-07T21:47:02.957Z,98575.22
2023-07-07T21:49:49.915Z,98681.50
2023-07-07T21:52:35.323Z,98580.72
2023-07-07T21:55:22.677Z,98719.03
2023-07-07T21:58:10.190Z,98746.56
2023-07-07T22:00:56.839Z,98759.47
2023-07-07T22:03:42.515Z,98749.59
2023-07-07T22:06:28.127Z,98613.25
2023-07-07T22:09:16.214Z,98750.22
2023-07-07T22:12:02.094Z,98714.91
2023-07-07T22:14:48.722Z,98751.78
2023-07-07T22:17:34.286Z,98750.38
2023-07-07T22:20:35.905Z,98612.28
2023-07-07T22:23:21.509Z,98607.72
2023-07-07T22:26:14.694Z,98745.94
2023-07-07T22:29:00.258Z,98711.66
2023-07-07T22:31:45.672Z,98594.22
2023-07-07T22:34:32.058Z,98709.06
2023-07-07T22:37:17.904Z,98734.94
2023-07-07T22:40:16.700Z,98615.66
2023-07-07T22:43:01.972Z,98744.66
2023-07-07T22:45:55.816Z,98744.41
2023-07-07T22:48:41.346Z,98731.94
2023-07-07T22:51:27.102Z,98706.50
2023-07-07T22:54:12.327Z,98558.59
2023-07-07T22:56:57.798Z,98728.50
2023-07-07T22:59:43.062Z,98640.16
2023-07-07T23:02:28.472Z,98724.34
2023-07-07T23:05:14.750Z,98542.75
2023-07-07T23:08:00.313Z,98734.03
2023-07-07T23:10:45.610Z,98562.97
2023-07-07T23:13:31.435Z,98600.84
2023-07-07T23:16:18.075Z,98583.31
2023-07-07T23:19:11.726Z,98677.75
2023-07-07T23:21:57.236Z,98575.44
2023-07-07T23:24:42.952Z,98589.78
2023-07-07T23:27:34.346Z,98569.66
2023-07-07T23:30:42.137Z,98739.75
2023-07-07T23:33:27.752Z,98564.81
2023-07-07T23:36:17.616Z,98649.25
2023-07-07T23:39:12.141Z,98715.31
2023-07-07T23:41:57.996Z,98612.69
2023-07-07T23:44:43.616Z,98568.22
2023-07-07T23:47:29.201Z,98735.22
2023-07-07T23:50:23.248Z,98737.41
2023-07-07T23:53:08.823Z,98770.06
2023-07-07T23:55:56.034Z,98736.28
2023-07-07T23:58:44.252Z,98745.00
